Time;durP1;ratioP1;P1;durP2;ratioP2;P2;SDS_P1;SDS_P2;PMS_P1;PMS_P2;Temp;Humidity;BMP_temperature;BMP_pressure;BME280_temperature;BME280_humidity;BME280_pressure;Samples;Min_cycle;Max_cycle;Signal;HPM_P1;HPM_P2
2022/09/12 00:02:23;;;;;;;3.13;1.85;;;22.40;71.60;;;;;;5070432;28;20045;-68
2022/09/12 00:04:49;;;;;;;3.03;1.52;;;22.40;71.60;;;;;;5071938;28;20068;-68
2022/09/12 00:07:14;;;;;;;2.10;1.50;;;22.40;71.60;;;;;;5071245;28;20081;-69
2022/09/12 00:09:40;;;;;;;3.22;1.40;;;22.40;71.60;;;;;;5053025;28;20044;-69
2022/09/12 00:12:06;;;;;;;2.22;1.50;;;22.40;71.60;;;;;;5071634;28;20123;-69
2022/09/12 00:14:32;;;;;;;3.40;1.45;;;22.40;71.60;;;;;;5071518;28;20056;-68
2022/09/12 00:16:58;;;;;;;2.22;1.58;;;22.40;72.20;;;;;;5070578;28;20056;-68
2022/09/12 00:19:24;;;;;;;3.45;1.60;;;22.40;71.60;;;;;;5071285;28;20048;-68
2022/09/12 00:21:50;;;;;;;3.88;1.50;;;22.30;71.60;;;;;;5071493;28;20503;-69
2022/09/12 00:24:15;;;;;;;4.22;1.55;;;22.30;71.60;;;;;;5070694;28;20040;-68
2022/09/12 00:26:41;;;;;;;3.38;1.90;;;22.30;71.50;;;;;;5071488;28;20129;-68
2022/09/12 00:29:06;;;;;;;5.85;2.00;;;22.40;71.60;;;;;;5070780;28;20187;-69
2022/09/12 00:31:32;;;;;;;2.42;1.50;;;22.30;71.50;;;;;;5070810;28;20457;-69
2022/09/12 00:33:59;;;;;;;2.53;1.80;;;22.30;71.50;;;;;;5071512;28;20040;-69
2022/09/12 00:36:26;;;;;;;1.92;1.60;;;22.30;71.50;;;;;;5053434;28;20044;-69
2022/09/12 00:38:53;;;;;;;3.78;1.80;;;22.30;71.50;;;;;;5074466;28;20040;-69
2022/09/12 00:41:25;;;;;;;3.03;1.70;;;22.30;71.50;;;;;;5074642;28;20135;-69
2022/09/12 00:43:58;;;;;;;3.30;1.40;;;22.30;71.50;;;;;;5074939;28;20036;-70
2022/09/12 00:46:38;;;;;;;2.45;1.60;;;22.30;71.40;;;;;;5074034;28;20507;-69
2022/09/12 00:49:10;;;;;;;3.17;1.67;;;22.30;71.40;;;;;;5056739;28;20120;-69
2022/09/12 00:51:36;;;;;;;3.20;1.98;;;22.20;71.40;;;;;;5073898;28;20503;-69
2022/09/12 00:54:05;;;;;;;2.53;1.60;;;22.20;71.40;;;;;;5056875;28;20873;-72
2022/09/12 00:56:30;;;;;;;2.47;1.60;;;22.20;71.30;;;;;;5057075;28;20102;-70
2022/09/12 00:59:07;;;;;;;2.25;1.60;;;22.20;71.40;;;;;;5056100;28;20041;-70
2022/09/12 01:01:33;;;;;;;3.22;1.80;;;22.30;71.40;;;;;;5041446;28;20127;-69
2022/09/12 01:03:59;;;;;;;3.35;1.80;;;22.20;71.40;;;;;;5056860;28;20124;-69
2022/09/12 01:06:35;;;;;;;3.88;1.92;;;22.20;71.30;;;;;;5073459;28;20515;-70
2022/09/12 01:09:03;;;;;;;2.70;1.58;;;22.20;71.30;;;;;;5057437;28;20095;-70
2022/09/12 01:11:30;;;;;;;2.38;1.60;;;22.20;71.30;;;;;;5056447;28;20135;-69
2022/09/12 01:13:55;;;;;;;2.55;1.65;;;22.20;71.30;;;;;;5073490;28;20186;-69
2022/09/12 01:16:21;;;;;;;2.22;1.60;;;22.20;71.30;;;;;;5074162;28;20462;-69
2022/09/12 01:18:52;;;;;;;2.25;1.63;;;22.20;71.30;;;;;;5056570;28;20049;-68
2022/09/12 01:21:43;;;;;;;2.42;1.77;;;22.20;71.30;;;;;;5055232;28;20483;-69
2022/09/12 01:24:29;;;;;;;2.88;1.67;;;22.20;71.20;;;;;;5073908;28;20040;-69
2022/09/12 01:27:21;;;;;;;2.75;1.60;;;22.20;71.20;;;;;;5040771;28;20064;-69
2022/09/12 01:29:56;;;;;;;4.18;1.80;;;22.20;71.20;;;;;;5056927;28;20399;-68
2022/09/12 01:32:43;;;;;;;3.63;1.90;;;22.20;71.20;;;;;;5055896;28;20124;-69
2022/09/12 01:35:22;;;;;;;2.67;1.77;;;22.20;71.20;;;;;;5073074;28;20045;-69
2022/09/12 01:38:30;;;;;;;2.78;1.80;;;22.20;71.20;;;;;;5040876;28;20488;-69
2022/09/12 01:41:13;;;;;;;2.15;1.60;;;22.20;71.10;;;;;;5068150;28;20056;-69
2022/09/12 01:43:53;;;;;;;2.45;1.65;;;22.20;71.20;;;;;;5040113;28;20044;-69
2022/09/12 01:46:23;;;;;;;2.88;1.80;;;22.10;71.10;;;;;;5073434;28;20043;-69
2022/09/12 01:49:37;;;;;;;2.33;1.70;;;22.20;71.20;;;;;;5039189;28;20124;-69
2022/09/12 01:52:17;;;;;;;2.25;1.75;;;22.10;71.00;;;;;;5056179;28;20125;-69
2022/09/12 01:54:53;;;;;;;3.42;1.88;;;22.10;71.10;;;;;;5056048;28;20052;-69
2022/09/12 01:57:29;;;;;;;2.63;1.70;;;22.20;71.10;;;;;;5055740;28;20518;-69
2022/09/12 01:59:58;;;;;;;2.47;1.58;;;22.10;71.10;;;;;;5023288;28;20040;-69
2022/09/12 02:02:27;;;;;;;2.53;1.70;;;22.10;71.10;;;;;;5038266;28;20048;-69
2022/09/12 02:04:57;;;;;;;3.08;1.90;;;22.10;71.10;;;;;;5038833;28;20040;-69
2022/09/12 02:07:30;;;;;;;2.88;2.00;;;22.10;71.10;;;;;;5055201;28;20052;-69
2022/09/12 02:10:04;;;;;;;3.08;1.90;;;22.10;71.00;;;;;;5037722;28;20055;-69
2022/09/12 02:12:33;;;;;;;2.17;1.70;;;22.10;71.00;;;;;;5055272;28;20116;-69
2022/09/12 02:15:01;;;;;;;3.38;1.85;;;22.10;71.00;;;;;;5039297;28;20052;-69
2022/09/12 02:17:27;;;;;;;2.42;1.92;;;22.10;71.00;;;;;;5054334;28;20092;-69
2022/09/12 02:19:56;;;;;;;2.20;1.63;;;22.10;71.00;;;;;;5054803;28;20404;-69
2022/09/12 02:22:23;;;;;;;2.63;1.75;;;22.10;71.00;;;;;;5054861;28;20049;-69
2022/09/12 02:24:51;;;;;;;3.88;2.00;;;22.10;71.00;;;;;;5037914;28;20381;-69
2022/09/12 02:27:23;;;;;;;2.78;2.13;;;22.10;71.00;;;;;;5072623;28;20154;-69
2022/09/12 02:29:48;;;;;;;3.13;2.17;;;22.10;71.00;;;;;;5072509;28;20557;-68
2022/09/12 02:33:04;;;;;;;2.50;1.80;;;22.10;71.00;;;;;;5071638;28;20049;-69
2022/09/12 02:35:38;;;;;;;2.60;1.88;;;22.10;70.80;;;;;;4971547;28;20131;-69
2022/09/12 02:38:13;;;;;;;3.13;1.90;;;22.10;71.00;;;;;;5033519;28;20143;-69
2022/09/12 02:40:38;;;;;;;2.22;1.70;;;22.00;70.90;;;;;;5054710;28;20048;-69
2022/09/12 02:43:07;;;;;;;3.53;2.30;;;22.00;70.90;;;;;;5072425;28;20056;-69
2022/09/12 02:45:33;;;;;;;2.97;2.17;;;22.10;70.90;;;;;;5054684;28;20041;-69
2022/09/12 02:48:36;;;;;;;3.47;2.05;;;22.00;70.80;;;;;;5072679;28;20053;-69
2022/09/12 02:51:02;;;;;;;2.72;2.08;;;22.00;70.70;;;;;;5069009;28;20084;-69
2022/09/12 02:53:28;;;;;;;3.20;2.10;;;22.00;70.80;;;;;;5071690;28;20075;-69
2022/09/12 02:55:53;;;;;;;3.10;1.92;;;22.00;70.80;;;;;;5072327;28;20071;-69
2022/09/12 02:58:26;;;;;;;3.13;2.30;;;22.00;70.80;;;;;;5053744;28;20075;-69
2022/09/12 03:01:34;;;;;;;4.40;2.40;;;22.00;70.70;;;;;;5054197;28;20072;-69
2022/09/12 03:04:16;;;;;;;3.30;2.50;;;22.00;70.70;;;;;;5072186;28;20076;-69
2022/09/12 03:06:54;;;;;;;2.72;2.25;;;22.00;70.70;;;;;;5055571;28;20040;-69
2022/09/12 03:09:47;;;;;;;4.13;2.53;;;22.00;70.70;;;;;;5039108;28;20088;-68
2022/09/12 03:12:36;;;;;;;3.13;2.28;;;22.00;70.70;;;;;;5071394;28;20306;-69
2022/09/12 03:15:14;;;;;;;3.70;2.22;;;22.00;70.70;;;;;;5057168;28;20045;-69
2022/09/12 03:17:47;;;;;;;3.17;2.40;;;21.90;70.60;;;;;;5038201;28;20059;-69
2022/09/12 03:20:37;;;;;;;3.47;2.50;;;22.00;70.70;;;;;;5053122;28;20474;-69
2022/09/12 03:23:06;;;;;;;3.78;2.25;;;22.00;70.70;;;;;;5057285;28;20040;-69
2022/09/12 03:25:37;;;;;;;2.97;2.35;;;21.90;70.60;;;;;;5021673;28;20072;-69
2022/09/12 03:28:08;;;;;;;4.10;2.60;;;21.90;70.60;;;;;;5033325;28;20408;-69
2022/09/12 03:30:38;;;;;;;3.55;2.45;;;21.90;70.60;;;;;;5033858;28;20057;-69
2022/09/12 03:33:03;;;;;;;3.22;2.30;;;21.90;70.60;;;;;;5052130;28;20045;-69
2022/09/12 03:35:29;;;;;;;3.25;2.40;;;21.90;70.60;;;;;;5050884;28;20039;-69
2022/09/12 03:37:54;;;;;;;3.53;2.60;;;21.90;70.60;;;;;;5051575;28;20493;-69
2022/09/12 03:40:20;;;;;;;3.22;2.25;;;21.90;70.50;;;;;;5051085;28;20079;-69
2022/09/12 03:42:45;;;;;;;3.00;2.35;;;21.90;70.50;;;;;;5051957;28;20519;-69
2022/09/12 03:45:11;;;;;;;3.42;2.78;;;21.90;70.50;;;;;;5051419;28;20041;-69
2022/09/12 03:47:37;;;;;;;3.83;2.63;;;21.90;70.50;;;;;;5051147;28;20098;-69
2022/09/12 03:50:03;;;;;;;3.55;2.85;;;21.90;70.50;;;;;;5033689;28;20049;-69
2022/09/12 03:52:28;;;;;;;3.60;2.72;;;21.90;70.50;;;;;;5051462;28;20045;-69
2022/09/12 03:54:57;;;;;;;3.67;2.50;;;21.90;70.50;;;;;;5051143;28;20052;-69
2022/09/12 03:57:22;;;;;;;3.90;2.53;;;21.90;70.50;;;;;;5050340;28;20056;-69
2022/09/12 03:59:49;;;;;;;3.25;2.50;;;21.90;70.50;;;;;;5051431;28;20049;-69
2022/09/12 04:02:15;;;;;;;3.78;2.78;;;21.90;70.50;;;;;;5050431;28;20048;-69
2022/09/12 04:04:43;;;;;;;4.05;2.65;;;21.90;70.50;;;;;;5051127;28;20041;-69
2022/09/12 04:07:09;;;;;;;3.42;2.45;;;21.90;70.40;;;;;;5032831;28;20484;-69
2022/09/12 04:09:35;;;;;;;3.10;2.53;;;21.90;70.40;;;;;;5050885;28;20056;-69
2022/09/12 04:12:01;;;;;;;3.63;2.55;;;21.90;70.40;;;;;;5052601;28;20041;-69
2022/09/12 04:14:26;;;;;;;3.58;2.30;;;21.90;70.40;;;;;;5054907;28;20060;-69
2022/09/12 04:16:52;;;;;;;3.35;2.50;;;21.90;70.40;;;;;;5054844;28;20041;-70
2022/09/12 04:19:17;;;;;;;3.72;2.78;;;21.90;70.40;;;;;;5055334;28;20564;-69
2022/09/12 04:21:43;;;;;;;3.80;2.90;;;21.90;70.40;;;;;;5037697;28;20369;-70
2022/09/12 04:24:08;;;;;;;4.05;2.58;;;21.80;70.30;;;;;;5054331;28;20487;-69
2022/09/12 04:26:34;;;;;;;3.75;2.45;;;21.80;70.30;;;;;;5055225;28;20053;-69
2022/09/12 04:28:59;;;;;;;4.25;2.67;;;21.80;70.30;;;;;;5055179;28;20071;-69
2022/09/12 04:31:26;;;;;;;4.43;2.95;;;21.90;70.40;;;;;;5053619;28;20061;-69
2022/09/12 04:33:58;;;;;;;4.20;2.90;;;21.80;70.30;;;;;;5055002;28;20037;-70
2022/09/12 04:36:24;;;;;;;5.10;2.67;;;21.80;70.30;;;;;;5036825;28;20049;-69
2022/09/12 04:38:50;;;;;;;3.78;2.67;;;21.80;70.20;;;;;;5054337;28;20044;-69
2022/09/12 04:41:24;;;;;;;3.60;2.47;;;21.80;70.20;;;;;;5054773;28;20053;-69
2022/09/12 04:43:54;;;;;;;3.53;2.53;;;21.80;70.30;;;;;;5054144;28;20048;-69
2022/09/12 04:46:20;;;;;;;3.45;2.63;;;21.80;70.20;;;;;;5054241;28;20581;-69
2022/09/12 04:48:48;;;;;;;4.20;3.00;;;21.80;70.20;;;;;;5054893;28;20041;-69
2022/09/12 04:51:19;;;;;;;3.25;2.50;;;21.80;70.20;;;;;;5053571;28;20041;-68
2022/09/12 04:53:49;;;;;;;3.67;2.58;;;21.80;70.20;;;;;;5036810;28;20044;-68
2022/09/12 04:56:15;;;;;;;4.00;3.00;;;21.80;70.20;;;;;;5054734;28;20051;-68
2022/09/12 04:58:40;;;;;;;4.05;3.10;;;21.80;70.20;;;;;;5053530;28;20116;-68
2022/09/12 05:01:07;;;;;;;3.40;2.67;;;21.80;70.20;;;;;;5054397;28;20044;-68
2022/09/12 05:03:33;;;;;;;3.15;2.63;;;21.80;70.20;;;;;;5054696;28;20136;-68
2022/09/12 05:06:01;;;;;;;4.40;2.90;;;21.80;70.20;;;;;;5053448;28;20048;-68
2022/09/12 05:08:26;;;;;;;3.42;2.70;;;21.80;70.20;;;;;;5054269;28;20049;-68
2022/09/12 05:10:52;;;;;;;4.90;3.28;;;21.80;70.20;;;;;;5036451;28;20052;-68
2022/09/12 05:13:21;;;;;;;3.83;2.90;;;21.70;70.10;;;;;;5053402;28;20053;-68
2022/09/12 05:15:56;;;;;;;3.63;2.65;;;21.80;70.20;;;;;;5053699;28;20443;-68
2022/09/12 05:18:22;;;;;;;3.80;3.10;;;21.70;70.10;;;;;;5053796;28;20453;-67
2022/09/12 05:20:47;;;;;;;3.83;2.80;;;21.70;70.10;;;;;;5053436;28;20497;-68
2022/09/12 05:23:13;;;;;;;5.07;3.33;;;21.80;70.20;;;;;;5053597;28;20477;-68
2022/09/12 05:25:38;;;;;;;4.22;2.70;;;21.70;70.10;;;;;;5054000;28;20048;-68
2022/09/12 05:28:04;;;;;;;4.55;3.00;;;21.70;70.10;;;;;;5035449;28;20077;-68
2022/09/12 05:30:29;;;;;;;4.82;3.20;;;21.70;70.10;;;;;;5052777;28;20131;-69
2022/09/12 05:32:55;;;;;;;4.28;3.20;;;21.70;70.10;;;;;;5053441;28;20129;-69
2022/09/12 05:35:20;;;;;;;3.90;2.97;;;21.70;70.10;;;;;;5053747;28;20087;-69
2022/09/12 05:37:52;;;;;;;3.55;2.80;;;21.70;70.10;;;;;;5053475;28;20045;-68
2022/09/12 05:40:18;;;;;;;4.63;3.17;;;21.70;70.10;;;;;;5052810;28;20629;-69
2022/09/12 05:42:43;;;;;;;5.25;3.08;;;21.70;70.20;;;;;;5053912;28;20072;-68
2022/09/12 05:45:09;;;;;;;3.65;2.85;;;21.70;70.10;;;;;;5035207;28;20127;-69
2022/09/12 05:47:35;;;;;;;4.22;2.95;;;21.70;70.20;;;;;;5053146;28;20083;-68
2022/09/12 05:50:00;;;;;;;4.72;3.30;;;21.70;70.20;;;;;;5053662;28;20178;-69
2022/09/12 05:52:26;;;;;;;4.13;2.92;;;21.70;70.10;;;;;;5052896;28;20106;-69
2022/09/12 05:54:51;;;;;;;3.92;3.03;;;21.70;70.10;;;;;;5053037;28;20196;-69
2022/09/12 05:57:17;;;;;;;4.05;3.08;;;21.70;70.10;;;;;;5053335;28;20044;-69
2022/09/12 05:59:46;;;;;;;4.20;2.90;;;21.70;70.10;;;;;;5052869;28;20128;-69
2022/09/12 06:02:11;;;;;;;4.40;3.10;;;21.70;70.10;;;;;;5052628;28;20041;-68
2022/09/12 06:04:39;;;;;;;4.53;3.15;;;21.70;70.10;;;;;;5056654;28;20033;-70
2022/09/12 06:07:05;;;;;;;4.22;3.28;;;21.70;70.10;;;;;;5062142;28;20431;-65
2022/09/12 06:09:31;;;;;;;4.93;3.38;;;21.70;70.10;;;;;;5071921;28;20040;-64
2022/09/12 06:11:57;;;;;;;5.57;3.33;;;21.70;70.00;;;;;;5073367;28;20492;-68
2022/09/12 06:14:23;;;;;;;5.20;3.60;;;21.70;70.00;;;;;;5072790;28;20048;-71
2022/09/12 06:16:49;;;;;;;5.68;3.92;;;21.70;69.90;;;;;;5071865;28;20098;-68
2022/09/12 06:19:26;;;;;;;6.75;4.20;;;21.70;69.90;;;;;;5054883;28;20055;-68
2022/09/12 06:21:52;;;;;;;9.27;4.47;;;21.70;69.90;;;;;;5073172;28;20040;-69
2022/09/12 06:24:18;;;;;;;8.23;4.57;;;21.70;70.00;;;;;;5072059;28;20044;-69
2022/09/12 06:26:44;;;;;;;6.28;4.72;;;21.70;70.10;;;;;;5073161;28;20048;-69
2022/09/12 06:29:10;;;;;;;7.60;4.53;;;21.80;70.20;;;;;;5071767;28;20090;-69
2022/09/12 06:31:36;;;;;;;6.63;4.50;;;21.80;70.40;;;;;;5072801;28;20044;-70
2022/09/12 06:34:06;;;;;;;7.53;4.00;;;21.80;70.50;;;;;;5072403;28;20063;-69
2022/09/12 06:36:35;;;;;;;7.22;4.07;;;21.80;70.50;;;;;;5072063;28;20044;-66
2022/09/12 06:39:02;;;;;;;10.50;4.50;;;21.80;70.50;;;;;;5055213;28;20075;-67
2022/09/12 06:41:28;;;;;;;7.13;4.10;;;21.80;70.50;;;;;;5072502;28;20492;-66
2022/09/12 06:43:54;;;;;;;6.63;3.75;;;21.80;70.50;;;;;;5072026;28;20040;-66
2022/09/12 06:46:20;;;;;;;4.90;3.80;;;21.80;70.40;;;;;;5064921;28;20086;-68
2022/09/12 06:48:45;;;;;;;6.25;3.45;;;21.80;70.30;;;;;;5057728;28;20114;-70
2022/09/12 06:51:13;;;;;;;11.63;4.68;;;21.80;70.40;;;;;;5051542;28;20063;-69
2022/09/12 06:53:39;;;;;;;;;;;21.80;70.40;;;;;;5053204;28;20041;-68
2022/09/12 06:56:13;;;;;;;9.02;5.05;;;21.80;70.20;;;;;;5034833;28;19924;-68
2022/09/12 06:58:39;;;;;;;7.45;4.45;;;21.80;70.40;;;;;;5051825;28;20117;-67
2022/09/12 07:01:08;;;;;;;7.65;4.80;;;21.80;70.40;;;;;;5052194;28;20112;-68
2022/09/12 07:03:34;;;;;;;10.65;5.10;;;21.80;70.40;;;;;;5052560;28;20040;-69
2022/09/12 07:06:07;;;;;;;6.50;4.80;;;21.80;70.50;;;;;;5051797;28;20037;-70
2022/09/12 07:08:33;;;;;;;7.85;4.95;;;21.80;70.50;;;;;;5053537;28;20045;-70
2022/09/12 07:11:00;;;;;;;7.22;4.78;;;21.80;70.40;;;;;;5067603;28;20114;-70
2022/09/12 07:13:25;;;;;;;9.00;5.03;;;21.80;70.30;;;;;;5071240;28;20044;-69
2022/09/12 07:15:51;;;;;;;10.55;5.22;;;21.80;70.30;;;;;;5071157;28;20036;-70
2022/09/12 07:18:23;;;;;;;11.48;5.07;;;21.80;70.30;;;;;;5072260;28;20135;-70
2022/09/12 07:20:51;;;;;;;7.28;4.40;;;21.80;70.30;;;;;;5072324;28;20616;-70
2022/09/12 07:23:17;;;;;;;7.82;4.38;;;21.80;70.30;;;;;;5037097;28;20109;-73
2022/09/12 07:25:42;;;;;;;8.70;4.97;;;21.80;70.30;;;;;;5071529;28;20439;-72
2022/09/12 07:28:08;;;;;;;14.13;5.40;;;21.80;70.30;;;;;;5043389;28;20127;-69
2022/09/12 07:30:35;;;;;;;13.00;5.38;;;21.80;70.40;;;;;;5051416;28;20110;-69
2022/09/12 07:33:01;;;;;;;12.70;5.83;;;21.80;70.50;;;;;;5033791;28;20049;-71
2022/09/12 07:35:31;;;;;;;;;;;21.90;70.60;;;;;;5052490;28;20304;-70
2022/09/12 07:37:56;;;;;;;10.70;5.60;;;21.90;70.70;;;;;;5052203;28;20007;-71
2022/09/12 07:40:22;;;;;;;15.18;5.93;;;21.90;70.70;;;;;;5050986;28;20348;-70
2022/09/12 07:42:48;;;;;;;12.07;6.35;;;21.90;70.70;;;;;;5052033;28;20140;-72
2022/09/12 07:45:14;;;;;;;9.77;5.68;;;21.90;70.70;;;;;;5051866;28;20053;-69
2022/09/12 07:47:39;;;;;;;9.15;5.68;;;21.90;70.80;;;;;;5054998;28;20052;-68
2022/09/12 07:50:05;;;;;;;11.40;6.10;;;21.90;70.80;;;;;;5056368;28;20045;-69
2022/09/12 07:52:31;;;;;;;10.00;5.20;;;21.90;70.70;;;;;;5055869;28;20055;-69
2022/09/12 07:54:57;;;;;;;11.05;5.70;;;21.90;70.50;;;;;;5055698;28;20047;-69
2022/09/12 07:57:23;;;;;;;12.13;5.68;;;21.90;70.40;;;;;;5055789;28;20045;-69
2022/09/12 07:59:49;;;;;;;14.05;5.60;;;21.90;70.30;;;;;;5055991;28;20103;-68
2022/09/12 08:02:15;;;;;;;9.82;5.30;;;21.90;70.20;;;;;;5055049;28;20049;-68
2022/09/12 08:04:43;;;;;;;12.00;5.10;;;21.90;70.30;;;;;;5038245;28;20041;-68
2022/09/12 08:07:08;;;;;;;9.32;5.35;;;21.90;70.40;;;;;;5055752;28;20124;-69
2022/09/12 08:09:34;;;;;;;11.38;5.63;;;21.90;70.50;;;;;;5055353;28;20533;-68
2022/09/12 08:12:00;;;;;;;8.80;5.50;;;21.90;70.50;;;;;;5037931;28;20041;-68
2022/09/12 08:14:26;;;;;;;9.05;6.10;;;21.90;70.50;;;;;;5055554;28;20174;-68
2022/09/12 08:16:52;;;;;;;10.32;5.10;;;21.90;70.80;;;;;;5055144;28;20045;-68
2022/09/12 08:19:17;;;;;;;13.63;5.57;;;21.90;70.50;;;;;;5055620;28;20076;-68
2022/09/12 08:21:43;;;;;;;9.13;5.22;;;21.90;70.40;;;;;;5054987;28;20143;-69
2022/09/12 08:24:10;;;;;;;10.18;5.35;;;21.90;70.40;;;;;;5055382;28;20087;-69
2022/09/12 08:26:38;;;;;;;8.97;5.73;;;21.90;70.40;;;;;;5021603;28;20044;-69
2022/09/12 08:29:04;;;;;;;8.50;5.28;;;21.90;70.40;;;;;;5054724;28;20354;-68
2022/09/12 08:31:35;;;;;;;7.53;4.60;;;21.90;70.40;;;;;;5037156;28;20056;-68
2022/09/12 08:34:01;;;;;;;8.77;5.28;;;21.90;70.40;;;;;;5055609;28;20085;-68
2022/09/12 08:36:27;;;;;;;7.63;5.03;;;21.90;70.40;;;;;;5054317;28;20056;-68
2022/09/12 08:38:57;;;;;;;9.32;5.13;;;21.90;70.40;;;;;;5037605;28;20048;-69
2022/09/12 08:41:45;;;;;;;8.07;5.00;;;21.90;70.40;;;;;;5055208;28;20037;-68
2022/09/12 08:44:26;;;;;;;7.65;4.72;;;21.90;70.40;;;;;;5038062;28;20041;-68
2022/09/12 08:47:03;;;;;;;8.73;5.53;;;21.90;70.40;;;;;;5037672;28;20097;-68
2022/09/12 08:49:57;;;;;;;8.15;5.38;;;21.90;70.40;;;;;;5055057;28;20053;-69
2022/09/12 08:52:37;;;;;;;7.93;4.68;;;21.90;70.50;;;;;;5026411;28;20045;-69
2022/09/12 08:55:11;;;;;;;9.32;4.90;;;21.90;70.50;;;;;;5055221;28;20045;-68
2022/09/12 08:57:36;;;;;;;8.57;5.10;;;21.90;70.50;;;;;;5020530;28;20037;-68
2022/09/12 09:00:04;;;;;;;8.13;4.93;;;21.90;70.50;;;;;;5054734;28;20048;-68
2022/09/12 09:02:56;;;;;;;10.15;5.10;;;21.90;70.40;;;;;;5054865;28;20041;-68
2022/09/12 09:05:50;;;;;;;8.85;5.03;;;21.90;71.10;;;;;;5043061;28;20517;-68
2022/09/12 09:08:40;;;;;;;8.27;5.10;;;21.90;70.40;;;;;;5054323;28;20473;-67
2022/09/12 09:11:12;;;;;;;9.35;5.18;;;21.90;70.40;;;;;;5036189;28;20523;-69
2022/09/12 09:16:34;;;;;;;8.52;4.72;;;21.90;70.30;;;;;;5054554;28;20045;-68
2022/09/12 09:19:04;;;;;;;10.55;6.00;;;21.90;70.40;;;;;;5003758;28;20041;-68
2022/09/12 09:21:52;;;;;;;7.43;4.50;;;21.90;70.30;;;;;;5020550;28;20473;-68
2022/09/12 09:24:20;;;;;;;7.55;4.93;;;22.00;70.30;;;;;;5021420;28;20053;-69
2022/09/12 09:26:50;;;;;;;10.10;5.60;;;21.90;70.20;;;;;;5003756;28;20047;-68
2022/09/12 09:29:19;;;;;;;10.65;5.05;;;21.90;70.20;;;;;;5036427;28;20049;-68
2022/09/12 09:31:51;;;;;;;7.80;5.18;;;21.90;70.20;;;;;;5036713;28;20056;-68
2022/09/12 09:34:20;;;;;;;8.70;5.63;;;21.90;70.20;;;;;;5035623;28;20489;-68
2022/09/12 09:36:51;;;;;;;8.27;5.30;;;22.00;70.20;;;;;;5054701;28;20041;-68
2022/09/12 09:39:31;;;;;;;8.02;5.30;;;22.00;70.20;;;;;;5053249;28;20040;-68
2022/09/12 09:42:06;;;;;;;8.15;5.55;;;22.00;70.20;;;;;;5054543;28;20134;-69
2022/09/12 09:44:32;;;;;;;8.98;5.32;;;22.00;70.20;;;;;;5036547;28;20125;-69
2022/09/12 09:46:57;;;;;;;9.13;5.75;;;22.00;70.10;;;;;;5019500;28;20123;-69
2022/09/12 09:49:24;;;;;;;7.20;4.75;;;22.00;70.10;;;;;;5036252;28;20096;-69
2022/09/12 09:51:50;;;;;;;7.40;4.90;;;22.00;70.10;;;;;;5054264;28;20053;-69
2022/09/12 09:54:48;;;;;;;10.07;5.35;;;22.00;70.20;;;;;;5018874;28;20045;-69
2022/09/12 09:57:35;;;;;;;8.25;5.50;;;22.10;70.10;;;;;;5019627;28;20041;-69
2022/09/12 10:00:25;;;;;;;9.60;5.93;;;22.10;70.10;;;;;;5053753;28;20056;-69
2022/09/12 10:03:11;;;;;;;9.43;5.78;;;22.10;70.10;;;;;;5054004;28;20045;-69
2022/09/12 10:05:53;;;;;;;8.93;5.90;;;22.10;70.20;;;;;;5054055;28;20116;-68
2022/09/12 10:08:37;;;;;;;11.30;6.22;;;22.10;70.10;;;;;;5018519;28;20088;-68
2022/09/12 10:11:16;;;;;;;9.60;5.63;;;22.10;70.10;;;;;;5035284;28;20049;-68
2022/09/12 10:14:03;;;;;;;8.43;5.20;;;22.10;70.10;;;;;;5020896;28;20044;-67
2022/09/12 10:16:29;;;;;;;9.70;5.95;;;22.10;70.10;;;;;;5037977;28;20051;-68
2022/09/12 10:18:59;;;;;;;11.18;5.75;;;22.10;70.80;;;;;;5053471;28;20041;-68
2022/09/12 10:21:49;;;;;;;10.25;6.15;;;22.10;70.10;;;;;;5052281;28;20048;-68
2022/09/12 10:24:35;;;;;;;9.48;5.53;;;22.20;70.20;;;;;;5053437;28;20045;-68
2022/09/12 10:27:14;;;;;;;9.60;5.68;;;22.20;70.20;;;;;;5053607;28;20071;-68
2022/09/12 10:29:47;;;;;;;9.25;6.03;;;22.20;70.20;;;;;;5018889;28;20063;-69
2022/09/12 10:32:25;;;;;;;10.25;5.45;;;22.20;70.10;;;;;;5018911;28;20569;-68
2022/09/12 10:34:52;;;;;;;10.48;5.75;;;22.30;70.20;;;;;;5053551;28;20052;-68
2022/09/12 10:37:34;;;;;;;9.75;5.82;;;22.30;70.10;;;;;;5052352;28;20067;-69
2022/09/12 10:40:00;;;;;;;9.20;5.53;;;22.30;70.10;;;;;;5035221;28;20404;-69
2022/09/12 10:42:48;;;;;;;9.93;5.95;;;22.30;70.20;;;;;;5034282;28;20416;-68
2022/09/12 10:45:20;;;;;;;;;;;22.30;70.10;;;;;;5053122;28;20052;-68
2022/09/12 10:47:46;;;;;;;9.95;6.63;;;22.30;70.10;;;;;;5053044;28;19928;-69
2022/09/12 10:50:31;;;;;;;11.48;6.15;;;22.30;70.00;;;;;;5051857;28;20045;-69
2022/09/12 10:53:17;;;;;;;10.02;5.32;;;22.40;70.20;;;;;;5035090;28;20045;-69
2022/09/12 10:55:50;;;;;;;8.93;6.30;;;22.40;70.20;;;;;;5052706;28;20037;-68
2022/09/12 10:58:23;;;;;;;8.68;6.00;;;22.40;70.20;;;;;;5034501;28;20128;-68
2022/09/12 11:00:52;;;;;;;8.05;5.75;;;22.40;70.10;;;;;;5035552;28;20041;-68
2022/09/12 11:03:23;;;;;;;11.73;6.13;;;22.50;70.10;;;;;;5018848;28;20484;-69
2022/09/12 11:06:00;;;;;;;8.32;5.53;;;22.50;70.10;;;;;;5035303;28;20037;-68
2022/09/12 11:08:56;;;;;;;8.98;5.70;;;22.50;70.10;;;;;;5035087;28;20520;-69
2022/09/12 11:11:43;;;;;;;9.70;6.38;;;22.50;70.00;;;;;;5051349;28;20511;-69
2022/09/12 11:14:27;;;;;;;8.63;6.28;;;22.50;70.00;;;;;;5052499;28;20069;-68
2022/09/12 11:17:08;;;;;;;10.07;6.32;;;22.50;70.00;;;;;;5036409;28;20396;-68
2022/09/12 11:19:49;;;;;;;9.05;5.57;;;22.50;70.00;;;;;;5051989;28;20060;-68
2022/09/12 11:22:33;;;;;;;8.68;5.72;;;22.60;70.00;;;;;;5017810;28;20179;-68
2022/09/12 11:24:58;;;;;;;8.43;5.50;;;22.60;70.00;;;;;;5051941;28;20052;-69
2022/09/12 11:27:39;;;;;;;8.15;5.68;;;22.60;69.90;;;;;;5052317;28;20037;-69
2022/09/12 11:30:09;;;;;;;8.90;5.85;;;22.60;70.00;;;;;;5035769;28;20195;-68
2022/09/12 11:32:41;;;;;;;9.45;5.85;;;22.60;69.90;;;;;;5017931;28;20045;-68
2022/09/12 11:35:26;;;;;;;7.90;5.45;;;22.70;70.00;;;;;;5052135;28;20134;-68
2022/09/12 11:38:21;;;;;;;9.70;6.03;;;22.70;69.90;;;;;;5034561;28;20064;-69
2022/09/12 11:41:07;;;;;;;8.80;6.10;;;22.70;70.00;;;;;;5033891;28;20049;-69
2022/09/12 11:44:01;;;;;;;8.65;5.57;;;22.70;69.90;;;;;;5034560;28;20053;-68
2022/09/12 11:46:39;;;;;;;8.43;6.00;;;22.70;69.90;;;;;;5050955;28;20045;-68
2022/09/12 11:49:08;;;;;;;9.73;5.78;;;22.70;69.90;;;;;;5018031;28;20045;-68
2022/09/12 11:52:01;;;;;;;9.40;6.30;;;22.70;69.90;;;;;;5034203;28;20048;-68
2022/09/12 11:54:50;;;;;;;7.75;5.38;;;22.70;69.80;;;;;;5033506;28;20053;-68
2022/09/12 11:57:28;;;;;;;8.75;5.97;;;22.80;69.90;;;;;;5033929;28;20485;-68
2022/09/12 11:59:55;;;;;;;10.13;6.03;;;22.80;69.80;;;;;;5033594;28;20049;-68
2022/09/12 12:02:47;;;;;;;8.52;6.00;;;22.80;69.80;;;;;;5034107;28;20053;-68
2022/09/12 12:05:23;;;;;;;10.07;6.13;;;22.80;69.70;;;;;;5017461;28;20080;-68
2022/09/12 12:07:59;;;;;;;8.32;5.70;;;22.80;69.70;;;;;;5033721;28;20048;-68
2022/09/12 12:10:31;;;;;;;8.68;5.80;;;22.80;69.70;;;;;;5051861;28;20618;-68
2022/09/12 12:12:56;;;;;;;8.75;5.75;;;22.80;69.70;;;;;;5034236;28;20045;-68
2022/09/12 12:15:22;;;;;;;8.07;5.03;;;22.80;69.80;;;;;;5016540;28;20531;-68
2022/09/12 12:18:13;;;;;;;8.20;5.88;;;22.80;69.70;;;;;;5017671;28;20033;-68
2022/09/12 12:20:38;;;;;;;7.25;5.55;;;22.80;69.70;;;;;;5034260;28;20041;-68
2022/09/12 12:23:04;;;;;;;8.63;5.47;;;22.80;69.80;;;;;;5033344;28;20029;-68
2022/09/12 12:25:39;;;;;;;8.35;5.57;;;22.80;69.70;;;;;;5051833;28;20045;-68
2022/09/12 12:28:05;;;;;;;9.02;5.97;;;22.80;69.60;;;;;;5051058;28;20049;-68
2022/09/12 12:30:32;;;;;;;9.45;6.18;;;22.80;69.70;;;;;;5033694;28;20053;-68
2022/09/12 12:33:01;;;;;;;7.60;5.22;;;22.80;69.60;;;;;;5052885;28;20098;-68
2022/09/12 12:35:45;;;;;;;8.70;5.93;;;22.80;69.60;;;;;;5054816;28;20052;-68
2022/09/12 12:38:37;;;;;;;8.05;5.63;;;22.90;69.50;;;;;;5021619;28;20469;-68
2022/09/12 12:41:17;;;;;;;8.82;5.60;;;22.90;69.50;;;;;;5055401;28;21156;-68
2022/09/12 12:43:47;;;;;;;8.30;5.75;;;22.90;69.50;;;;;;5036736;28;20464;-68
2022/09/12 12:46:33;;;;;;;7.72;5.38;;;22.90;69.40;;;;;;5037256;28;20048;-68
2022/09/12 12:49:06;;;;;;;7.80;5.13;;;23.00;69.40;;;;;;5036112;28;20049;-68
2022/09/12 12:51:37;;;;;;;9.02;5.45;;;22.90;69.30;;;;;;5055133;28;20128;-68
2022/09/12 12:54:22;;;;;;;7.65;5.03;;;23.00;69.30;;;;;;5021183;28;20037;-68
2022/09/12 12:56:50;;;;;;;7.20;4.78;;;23.00;69.20;;;;;;5054615;28;20076;-68
2022/09/12 12:59:20;;;;;;;8.45;5.47;;;23.00;69.20;;;;;;5021188;28;20048;-68
2022/09/12 13:01:48;;;;;;;8.15;5.35;;;23.00;69.20;;;;;;5054821;28;20492;-68
2022/09/12 13:04:18;;;;;;;8.32;5.10;;;23.00;69.20;;;;;;5036269;28;20441;-68
2022/09/12 13:07:04;;;;;;;6.80;4.85;;;23.00;69.20;;;;;;5038050;28;20048;-68
2022/09/12 13:09:44;;;;;;;9.57;5.18;;;23.10;69.20;;;;;;5039115;28;20064;-68
2022/09/12 13:12:11;;;;;;;7.80;5.30;;;23.10;69.20;;;;;;5036130;28;20122;-68
2022/09/12 13:14:53;;;;;;;7.78;5.30;;;23.10;69.20;;;;;;5036209;28;20412;-68